Terminal Aerodrome Forecast
Issued by NWS Grand Forks, ND

Home | Current Version | Previous Version | Text Only | Print | Product List | Glossary On
Versions: 1 2 3 4 5 6 7 8 9 10 11 12 13 14 15 16 17 18 19
000
FTUS43 KFGF 200522 AAB
TAFGFK
TAF AMD
KGFK 200522Z 2005/2106 VRB04KT 6SM BR SCT150
     FM200700 16005KT 4SM BR BKN140
     FM200900 16006KT P6SM BKN200
     FM201700 22011KT P6SM BKN250
     FM202200 26014G22KT P6SM BKN130
     FM210500 31021G32KT P6SM BKN050=

USA.gov is the U.S. government's official web portal to all federal, state and local government web resources and services.